Time;durP1;ratioP1;P1;durP2;ratioP2;P2;SDS_P1;SDS_P2;PMS_P1;PMS_P2;Temp;Humidity;BMP_temperature;BMP_pressure;BME280_temperature;BME280_humidity;BME280_pressure;Samples;Min_cycle;Max_cycle;Signal;HPM_P1;HPM_P2
2021/06/25 00:00:20;;;;;;;8.53;7.60;;;18.60;1.00;;;;;;5052668;28;20436;-82
2021/06/25 00:02:48;;;;;;;8.13;7.43;;;18.60;1.00;;;;;;5055576;28;20450;-82
2021/06/25 00:05:15;;;;;;;7.67;7.07;;;18.60;1.00;;;;;;5063077;28;21775;-82
2021/06/25 00:07:42;;;;;;;7.80;7.17;;;18.60;1.00;;;;;;5059978;28;20472;-81
2021/06/25 00:10:10;;;;;;;7.63;7.03;;;18.60;1.00;;;;;;5057537;28;20467;-82
2021/06/25 00:12:37;;;;;;;8.33;7.53;;;18.70;1.00;;;;;;5058457;28;21462;-82
2021/06/25 00:15:06;;;;;;;8.40;7.70;;;18.60;1.00;;;;;;5064685;28;21257;-82
2021/06/25 00:17:33;;;;;;;8.43;7.63;;;18.60;1.00;;;;;;5064085;28;20450;-82
2021/06/25 00:20:01;;;;;;;8.13;7.43;;;18.50;1.00;;;;;;5063337;28;20455;-82
2021/06/25 00:22:28;;;;;;;8.20;7.40;;;18.50;1.00;;;;;;5058620;28;20502;-81
2021/06/25 00:24:54;;;;;;;9.13;7.60;;;18.50;1.00;;;;;;5060540;28;20431;-82
2021/06/25 00:27:21;;;;;;;8.83;8.03;;;18.40;1.00;;;;;;5059896;28;20641;-82
2021/06/25 00:29:48;;;;;;;8.53;7.73;;;18.40;1.00;;;;;;5059513;28;20485;-83
2021/06/25 00:32:15;;;;;;;9.00;8.23;;;18.40;1.00;;;;;;5059571;28;20551;-82
2021/06/25 00:34:41;;;;;;;9.13;8.30;;;18.40;1.00;;;;;;5060927;28;20442;-82
2021/06/25 00:37:09;;;;;;;8.60;7.80;;;18.40;1.00;;;;;;5062645;28;20454;-81
2021/06/25 00:39:36;;;;;;;8.47;7.70;;;18.40;1.00;;;;;;5059686;28;20439;-82
2021/06/25 00:42:03;;;;;;;9.10;8.20;;;18.40;1.00;;;;;;5068784;28;20467;-81
2021/06/25 00:44:30;;;;;;;9.30;8.30;;;18.40;1.00;;;;;;5069683;28;23397;-81
2021/06/25 00:46:57;;;;;;;8.83;8.00;;;18.30;1.00;;;;;;5062494;28;20428;-82
2021/06/25 00:49:23;;;;;;;8.30;7.50;;;18.30;1.00;;;;;;5069376;28;20454;-82
2021/06/25 00:51:50;;;;;;;8.20;7.50;;;18.30;1.00;;;;;;5075509;28;20458;-81
2021/06/25 00:54:18;;;;;;;9.23;8.40;;;18.30;1.00;;;;;;5077289;27;20575;-82
2021/06/25 00:56:45;;;;;;;9.13;8.27;;;18.20;1.00;;;;;;5077343;28;20450;-82
2021/06/25 00:59:11;;;;;;;8.30;7.60;;;18.20;1.00;;;;;;5082106;27;20517;-81
2021/06/25 01:01:38;;;;;;;8.47;7.77;;;18.20;1.00;;;;;;5075270;28;20442;-81
2021/06/25 01:04:05;;;;;;;8.30;7.50;;;18.20;1.00;;;;;;5071394;27;20650;-82
2021/06/25 01:06:32;;;;;;;8.70;7.90;;;18.20;1.00;;;;;;5071474;28;20492;-81
2021/06/25 01:08:59;;;;;;;8.30;7.60;;;18.10;1.00;;;;;;5068145;28;20422;-81
2021/06/25 01:11:30;;;;;;;8.30;7.50;;;18.10;1.00;;;;;;5075318;28;20462;-82
2021/06/25 01:13:58;;;;;;;8.87;8.07;;;18.10;1.00;;;;;;5059529;28;20431;-82
2021/06/25 01:16:25;;;;;;;8.03;7.43;;;18.10;1.00;;;;;;5068051;28;20427;-83
2021/06/25 01:18:52;;;;;;;8.93;8.23;;;18.10;1.00;;;;;;5064152;28;21154;-83
2021/06/25 01:21:20;;;;;;;8.77;7.93;;;18.10;1.00;;;;;;5058808;28;20457;-82
2021/06/25 01:23:47;;;;;;;8.90;8.00;;;18.20;1.00;;;;;;5062252;28;20410;-83
2021/06/25 01:26:13;;;;;;;9.30;8.40;;;18.20;1.00;;;;;;5062468;28;20434;-82
2021/06/25 01:28:40;;;;;;;9.27;8.37;;;18.30;1.00;;;;;;5060335;28;20625;-82
2021/06/25 01:31:07;;;;;;;9.23;8.43;;;18.30;1.00;;;;;;5059399;28;21418;-82
2021/06/25 01:33:36;;;;;;;9.23;8.50;;;18.30;1.00;;;;;;5057575;28;21234;-82
2021/06/25 01:36:03;;;;;;;9.73;8.97;;;18.30;1.00;;;;;;5062863;28;20676;-83
2021/06/25 01:38:31;;;;;;;10.00;9.20;;;18.30;1.00;;;;;;5056792;28;20439;-82
2021/06/25 01:40:59;;;;;;;8.80;8.10;;;18.30;1.00;;;;;;5059084;28;20504;-84
2021/06/25 01:43:27;;;;;;;9.40;8.60;;;18.30;1.00;;;;;;5055722;28;20438;-83
2021/06/25 01:45:55;;;;;;;10.57;7.93;;;18.20;1.00;;;;;;5062755;28;20475;-81
2021/06/25 01:48:22;;;;;;;9.10;8.30;;;18.20;1.00;;;;;;5058851;28;20453;-82
2021/06/25 01:50:49;;;;;;;9.67;8.50;;;18.10;1.00;;;;;;5065613;28;21200;-82
2021/06/25 01:53:17;;;;;;;8.73;8.03;;;18.00;1.00;;;;;;5060720;28;20882;-82
2021/06/25 01:55:47;;;;;;;9.73;8.83;;;18.00;1.00;;;;;;5059382;28;20469;-82
2021/06/25 01:58:16;;;;;;;11.20;10.03;;;18.00;1.00;;;;;;5058138;28;20492;-82
2021/06/25 02:00:44;;;;;;;10.07;9.27;;;18.00;1.00;;;;;;5056044;28;20530;-83
2021/06/25 02:03:11;;;;;;;10.43;9.43;;;17.90;1.00;;;;;;5060782;28;20421;-82
2021/06/25 02:05:38;;;;;;;10.37;9.50;;;18.00;1.00;;;;;;5058932;28;20464;-82
2021/06/25 02:08:05;;;;;;;9.73;8.87;;;18.00;1.00;;;;;;5058458;28;21120;-83
2021/06/25 02:10:32;;;;;;;10.63;9.73;;;18.00;1.00;;;;;;5057357;28;20985;-83
2021/06/25 02:13:00;;;;;;;10.13;9.30;;;18.10;1.00;;;;;;5059384;28;20429;-83
2021/06/25 02:15:26;;;;;;;10.83;9.97;;;18.00;1.00;;;;;;5057481;28;20463;-83
2021/06/25 02:17:53;;;;;;;10.43;9.57;;;18.00;1.00;;;;;;5060327;28;21312;-83
2021/06/25 02:20:20;;;;;;;10.90;9.80;;;18.00;1.00;;;;;;5057594;28;21039;-83
2021/06/25 02:22:47;;;;;;;10.63;9.67;;;18.00;1.00;;;;;;5057320;28;20597;-83
2021/06/25 02:25:14;;;;;;;10.70;9.60;;;18.10;1.00;;;;;;5059097;28;20563;-83
2021/06/25 02:27:41;;;;;;;10.00;9.13;;;18.10;1.00;;;;;;5056482;28;21001;-82
2021/06/25 02:30:15;;;;;;;14.90;9.70;;;18.20;1.00;;;;;;5060010;28;20489;-82
2021/06/25 02:32:42;;;;;;;10.07;9.17;;;18.20;1.00;;;;;;5062349;28;20460;-83
2021/06/25 02:35:09;;;;;;;10.67;9.67;;;18.20;1.00;;;;;;5067147;28;20430;-83
2021/06/25 02:37:36;;;;;;;10.87;9.97;;;18.20;1.00;;;;;;5068195;28;20554;-83
2021/06/25 02:40:04;;;;;;;10.27;9.47;;;18.20;1.00;;;;;;5064089;28;20587;-83
2021/06/25 02:42:31;;;;;;;11.23;10.23;;;18.30;1.00;;;;;;5060391;28;20479;-83
2021/06/25 02:44:58;;;;;;;11.07;10.13;;;18.30;1.00;;;;;;5055172;28;21091;-83
2021/06/25 02:47:26;;;;;;;10.57;9.57;;;18.30;1.00;;;;;;5053629;28;20929;-83
2021/06/25 02:49:52;;;;;;;10.90;9.80;;;18.40;1.00;;;;;;5058985;28;20438;-82
2021/06/25 02:52:19;;;;;;;11.33;10.27;;;18.40;1.00;;;;;;5059955;28;20456;-82
2021/06/25 02:54:46;;;;;;;10.60;9.70;;;18.30;1.00;;;;;;5056371;28;20462;-83
2021/06/25 02:57:12;;;;;;;11.87;10.77;;;18.40;1.00;;;;;;5056312;28;20557;-82
2021/06/25 02:59:39;;;;;;;12.20;11.10;;;18.40;1.00;;;;;;5054658;28;20571;-82
2021/06/25 03:02:06;;;;;;;12.10;11.00;;;18.40;1.00;;;;;;5056008;28;20430;-82
2021/06/25 03:04:34;;;;;;;10.20;9.40;;;18.40;1.00;;;;;;5055474;28;21080;-82
2021/06/25 03:07:01;;;;;;;10.63;9.73;;;18.40;1.00;;;;;;5055247;28;21444;-82
2021/06/25 03:09:27;;;;;;;10.07;9.20;;;18.40;1.00;;;;;;5063283;28;20664;-82
2021/06/25 03:11:54;;;;;;;10.90;9.93;;;18.50;1.00;;;;;;5051946;28;20754;-82
2021/06/25 03:14:21;;;;;;;10.03;9.07;;;18.50;1.00;;;;;;5058993;28;20452;-83
2021/06/25 03:16:48;;;;;;;13.10;11.90;;;18.50;1.00;;;;;;5069627;28;20562;-85
2021/06/25 03:19:14;;;;;;;12.20;11.10;;;18.50;1.00;;;;;;5049313;28;20439;-83
2021/06/25 03:21:42;;;;;;;11.60;10.60;;;18.50;1.00;;;;;;5064569;28;20447;-84
2021/06/25 03:24:10;;;;;;;12.43;11.30;;;18.60;1.00;;;;;;5062151;28;20512;-83
2021/06/25 03:26:37;;;;;;;13.33;12.07;;;18.60;1.00;;;;;;5067859;28;20411;-86
2021/06/25 03:29:03;;;;;;;14.50;13.20;;;18.60;1.00;;;;;;5063818;28;20581;-84
2021/06/25 03:31:30;;;;;;;14.90;12.60;;;18.60;1.00;;;;;;5068014;28;20598;-83
2021/06/25 03:33:57;;;;;;;12.60;11.50;;;18.60;1.00;;;;;;5064938;28;20443;-86
2021/06/25 03:36:24;;;;;;;12.73;11.57;;;18.70;1.00;;;;;;5065152;28;20452;-86
2021/06/25 03:38:52;;;;;;;12.63;11.43;;;18.70;1.00;;;;;;5065994;28;20509;-83
2021/06/25 03:41:19;;;;;;;13.97;12.77;;;18.60;1.00;;;;;;5065100;28;21065;-85
2021/06/25 03:43:46;;;;;;;13.00;11.90;;;18.50;1.00;;;;;;5065413;28;20426;-85
2021/06/25 03:46:12;;;;;;;13.93;12.73;;;18.50;1.00;;;;;;5067057;28;20451;-86
2021/06/25 03:48:39;;;;;;;13.83;12.57;;;18.50;1.00;;;;;;5068914;28;20489;-86
2021/06/25 03:51:06;;;;;;;16.77;12.97;;;18.50;1.00;;;;;;5074956;28;20548;-85
2021/06/25 03:53:33;;;;;;;15.80;13.73;;;18.40;1.00;;;;;;5074354;28;20468;-86
2021/06/25 03:56:10;;;;;;;14.90;13.60;;;18.40;1.00;;;;;;5082346;27;20519;-87
2021/06/25 03:58:37;;;;;;;15.43;14.00;;;18.40;1.00;;;;;;5073275;28;20516;-86
2021/06/25 04:01:04;;;;;;;15.17;13.90;;;18.40;1.00;;;;;;5075569;28;20412;-86
2021/06/25 04:03:31;;;;;;;14.57;13.20;;;18.40;1.00;;;;;;5068725;28;21670;-86
2021/06/25 04:05:58;;;;;;;18.03;16.23;;;18.30;1.00;;;;;;5064423;28;20414;-86
2021/06/25 04:08:26;;;;;;;16.90;15.40;;;18.40;1.00;;;;;;5069997;28;20458;-85
2021/06/25 04:10:53;;;;;;;17.70;16.17;;;18.40;1.00;;;;;;5063319;28;20427;-86
2021/06/25 04:13:22;;;;;;;17.27;15.77;;;18.40;1.00;;;;;;5070418;28;20552;-86
2021/06/25 04:15:49;;;;;;;16.80;15.40;;;18.50;1.00;;;;;;5062464;28;21120;-82
2021/06/25 04:18:15;;;;;;;19.03;17.33;;;18.60;1.00;;;;;;5068415;28;20471;-84
2021/06/25 04:20:43;;;;;;;17.23;15.67;;;18.60;1.00;;;;;;5064774;28;20948;-86
2021/06/25 04:23:10;;;;;;;17.13;15.47;;;18.70;1.00;;;;;;5064036;28;21127;-82
2021/06/25 04:25:36;;;;;;;18.30;16.73;;;18.70;1.00;;;;;;5064661;28;20479;-86
2021/06/25 04:28:04;;;;;;;16.90;15.30;;;18.80;1.00;;;;;;5068749;28;20442;-84
2021/06/25 04:30:34;;;;;;;18.80;16.93;;;18.80;1.00;;;;;;5066789;28;21564;-86
2021/06/25 04:33:02;;;;;;;18.30;16.60;;;18.90;1.00;;;;;;5065494;28;20491;-86
2021/06/25 04:35:29;;;;;;;17.53;15.87;;;18.90;1.00;;;;;;5073963;28;20419;-85
2021/06/25 04:37:56;;;;;;;18.07;16.27;;;19.00;1.00;;;;;;5063791;28;20483;-84
2021/06/25 04:40:23;;;;;;;18.80;17.07;;;19.00;1.00;;;;;;5065642;28;20449;-86
2021/06/25 04:42:50;;;;;;;18.50;16.87;;;19.00;1.00;;;;;;5068987;28;20496;-85
2021/06/25 04:45:16;;;;;;;19.23;17.37;;;19.00;1.00;;;;;;5064151;28;20447;-82
2021/06/25 04:47:45;;;;;;;17.60;15.83;;;19.00;1.00;;;;;;5052881;28;20476;-83
2021/06/25 04:50:12;;;;;;;20.07;17.30;;;19.10;1.00;;;;;;5056905;28;20437;-81
2021/06/25 04:52:39;;;;;;;22.30;20.10;;;19.10;1.00;;;;;;5059057;28;20443;-82
2021/06/25 04:55:08;;;;;;;18.53;16.77;;;19.20;1.00;;;;;;5061511;28;20404;-84
2021/06/25 04:57:34;;;;;;;18.60;16.73;;;19.20;1.00;;;;;;5059446;28;20573;-83
2021/06/25 05:00:01;;;;;;;17.03;15.53;;;19.30;1.00;;;;;;5056807;28;20481;-83
2021/06/25 05:02:28;;;;;;;16.97;15.47;;;19.30;1.00;;;;;;5059748;28;20464;-82
2021/06/25 05:04:56;;;;;;;17.73;15.87;;;19.30;1.00;;;;;;5062266;28;21186;-81
2021/06/25 05:07:23;;;;;;;20.20;15.77;;;19.40;1.00;;;;;;5063042;28;20519;-81
2021/06/25 05:09:49;;;;;;;19.90;16.13;;;19.40;1.00;;;;;;5056067;28;20546;-82
2021/06/25 05:12:16;;;;;;;17.00;15.40;;;19.50;1.00;;;;;;5056618;28;21029;-83
2021/06/25 05:14:43;;;;;;;16.00;14.70;;;19.50;1.00;;;;;;5060196;28;20507;-81
2021/06/25 05:17:09;;;;;;;16.13;14.63;;;19.60;1.00;;;;;;5065550;28;20454;-80
2021/06/25 05:19:36;;;;;;;15.87;14.47;;;19.60;1.00;;;;;;5058642;28;20436;-80
2021/06/25 05:22:04;;;;;;;14.87;13.57;;;19.70;1.00;;;;;;5057319;28;20474;-83
2021/06/25 05:24:31;;;;;;;15.10;13.60;;;19.70;1.00;;;;;;5061654;28;21020;-80
2021/06/25 05:26:59;;;;;;;17.30;15.87;;;19.80;1.00;;;;;;5056826;28;20455;-81
2021/06/25 05:29:26;;;;;;;18.33;16.73;;;19.80;1.00;;;;;;5052275;28;20455;-83
2021/06/25 05:31:53;;;;;;;17.33;15.73;;;19.90;1.00;;;;;;5056340;28;21060;-83
2021/06/25 05:34:19;;;;;;;13.87;12.40;;;20.00;1.00;;;;;;5054787;28;20475;-80
2021/06/25 05:36:46;;;;;;;12.83;11.53;;;20.00;1.00;;;;;;5064333;28;20442;-80
2021/06/25 05:39:14;;;;;;;12.70;11.60;;;20.10;1.00;;;;;;5054920;28;20432;-81
2021/06/25 05:41:41;;;;;;;11.03;10.13;;;20.20;1.00;;;;;;5058571;28;20459;-84
2021/06/25 05:44:08;;;;;;;16.30;11.10;;;20.30;1.00;;;;;;5053951;28;20738;-84
2021/06/25 05:46:34;;;;;;;12.97;11.57;;;20.40;1.00;;;;;;5060366;28;20489;-82
2021/06/25 05:49:01;;;;;;;19.80;10.93;;;20.50;1.00;;;;;;5069592;28;20442;-82
2021/06/25 05:51:28;;;;;;;12.70;11.17;;;20.60;1.00;;;;;;5067819;28;20459;-82
2021/06/25 05:53:55;;;;;;;10.40;9.37;;;20.70;1.00;;;;;;5061957;28;21128;-80
2021/06/25 05:56:23;;;;;;;25.83;15.70;;;20.70;1.00;;;;;;5072538;28;20522;-80
2021/06/25 05:58:51;;;;;;;12.53;11.00;;;20.70;1.00;;;;;;5067873;28;20452;-81
2021/06/25 06:01:17;;;;;;;11.77;10.57;;;20.80;1.00;;;;;;5053325;28;21229;-82
2021/06/25 06:03:45;;;;;;;11.77;10.67;;;20.80;1.00;;;;;;5061499;28;20548;-81
2021/06/25 06:06:12;;;;;;;12.33;10.60;;;20.80;1.00;;;;;;5067067;28;20523;-81
2021/06/25 06:08:38;;;;;;;11.57;10.40;;;20.90;1.00;;;;;;5071938;28;20448;-80
2021/06/25 06:11:05;;;;;;;11.60;10.40;;;21.00;1.00;;;;;;5056568;28;20432;-82
2021/06/25 06:13:33;;;;;;;12.10;10.53;;;21.10;1.00;;;;;;5071438;28;20440;-80
2021/06/25 06:16:00;;;;;;;11.60;10.60;;;21.20;1.00;;;;;;5053749;28;20532;-82
2021/06/25 06:18:29;;;;;;;15.30;11.90;;;21.30;1.00;;;;;;5062518;28;20465;-80
2021/06/25 06:20:56;;;;;;;12.67;10.30;;;21.40;1.00;;;;;;5057577;28;20432;-81
2021/06/25 06:31:40;;;;;;;11.50;10.10;;;21.70;1.00;;;;;;5068000;28;20654;-86
2021/06/25 06:34:10;;;;;;;17.00;11.20;;;21.80;1.00;;;;;;5066939;28;20478;-85
2021/06/25 06:36:42;;;;;;;10.60;9.50;;;21.80;1.00;;;;;;5070157;28;20425;-84
2021/06/25 06:39:09;;;;;;;12.80;10.40;;;21.80;1.00;;;;;;5069930;28;21715;-85
2021/06/25 06:41:36;;;;;;;12.20;11.10;;;21.70;1.00;;;;;;5072462;28;20408;-85
2021/06/25 06:44:05;;;;;;;11.63;10.53;;;21.70;1.00;;;;;;5063295;28;20441;-84
2021/06/25 06:46:33;;;;;;;11.70;10.60;;;21.70;1.00;;;;;;5067837;28;20458;-87
2021/06/25 06:49:00;;;;;;;12.10;10.90;;;21.80;1.00;;;;;;5092737;28;21263;-85
2021/06/25 06:51:27;;;;;;;12.03;10.23;;;21.80;1.00;;;;;;5077206;28;20461;-85
2021/06/25 06:53:56;;;;;;;10.70;9.70;;;21.90;1.00;;;;;;5090546;28;20563;-85
2021/06/25 06:56:23;;;;;;;14.63;11.57;;;22.00;1.00;;;;;;5075030;28;20548;-84
2021/06/25 06:58:53;;;;;;;11.40;10.20;;;22.10;1.00;;;;;;5068006;28;20481;-84
2021/06/25 07:01:21;;;;;;;10.53;9.50;;;22.10;1.00;;;;;;5076218;28;20429;-85
2021/06/25 07:03:48;;;;;;;11.40;9.90;;;22.10;1.00;;;;;;5070217;28;21500;-85
2021/06/25 07:06:16;;;;;;;12.37;11.13;;;22.10;1.00;;;;;;5073309;28;20456;-85
2021/06/25 07:08:42;;;;;;;11.53;10.43;;;22.10;1.00;;;;;;5072457;28;20488;-81
2021/06/25 07:11:09;;;;;;;12.70;11.23;;;22.10;1.00;;;;;;5068814;28;21049;-79
2021/06/25 07:13:36;;;;;;;14.03;10.90;;;22.20;1.00;;;;;;5063969;28;20518;-80
2021/06/25 07:16:03;;;;;;;11.67;9.73;;;22.30;1.00;;;;;;5056491;28;20432;-78
2021/06/25 07:18:31;;;;;;;12.63;10.97;;;22.40;1.00;;;;;;5059501;28;20456;-77
2021/06/25 07:20:58;;;;;;;11.13;9.83;;;22.40;1.00;;;;;;5056169;28;20468;-81
2021/06/25 07:23:25;;;;;;;11.47;10.27;;;22.40;1.00;;;;;;5057126;28;20478;-79
2021/06/25 07:25:52;;;;;;;10.50;9.57;;;22.30;1.00;;;;;;5056611;28;20490;-77
2021/06/25 07:28:18;;;;;;;13.07;10.97;;;22.30;1.00;;;;;;5051795;28;20468;-76
2021/06/25 07:30:45;;;;;;;13.13;10.47;;;22.20;1.00;;;;;;5059993;28;20452;-78
2021/06/25 07:33:12;;;;;;;10.83;9.87;;;22.10;1.00;;;;;;5058037;28;20473;-82
2021/06/25 07:35:40;;;;;;;11.03;9.97;;;22.00;1.00;;;;;;5053619;28;20532;-81
2021/06/25 07:38:07;;;;;;;11.00;10.10;;;21.90;1.00;;;;;;5058569;28;20445;-81
2021/06/25 07:40:33;;;;;;;11.07;9.87;;;21.90;1.00;;;;;;5053150;28;20523;-81
2021/06/25 07:43:00;;;;;;;12.93;11.60;;;21.90;1.00;;;;;;5060775;28;21149;-80
2021/06/25 07:45:27;;;;;;;11.70;10.40;;;21.90;1.00;;;;;;5055987;28;20417;-80
2021/06/25 07:47:53;;;;;;;10.60;9.67;;;21.80;1.00;;;;;;5060727;28;20466;-80
2021/06/25 07:50:20;;;;;;;9.83;8.60;;;21.90;1.00;;;;;;5058572;28;20484;-79
2021/06/25 07:52:48;;;;;;;13.40;10.70;;;21.90;1.00;;;;;;5060738;28;20472;-80
2021/06/25 07:55:16;;;;;;;10.77;9.83;;;22.10;1.00;;;;;;5062024;28;20539;-80
2021/06/25 07:57:43;;;;;;;9.93;9.03;;;22.10;1.00;;;;;;5052478;28;20978;-82
2021/06/25 08:00:11;;;;;;;10.37;9.37;;;22.20;1.00;;;;;;5065144;28;20465;-80
2021/06/25 08:02:38;;;;;;;11.70;8.13;;;22.30;1.00;;;;;;5059205;28;20406;-81
2021/06/25 08:05:05;;;;;;;9.33;8.53;;;22.40;1.00;;;;;;5063343;28;20553;-84
2021/06/25 08:07:32;;;;;;;9.60;8.77;;;22.40;1.00;;;;;;5060351;28;20513;-83
2021/06/25 08:10:00;;;;;;;11.13;9.67;;;22.50;1.00;;;;;;5058095;28;20461;-83
2021/06/25 08:12:27;;;;;;;8.60;7.77;;;22.40;1.00;;;;;;5068479;28;20510;-83
2021/06/25 08:14:56;;;;;;;9.83;8.93;;;22.50;1.00;;;;;;5057660;28;20445;-83
2021/06/25 08:17:23;;;;;;;9.80;8.90;;;22.70;1.00;;;;;;5061628;28;20519;-83
2021/06/25 08:19:50;;;;;;;9.27;8.57;;;22.90;1.00;;;;;;5060632;28;20470;-82
2021/06/25 08:22:16;;;;;;;11.47;10.23;;;22.90;1.00;;;;;;5061824;28;20414;-85
2021/06/25 08:24:43;;;;;;;10.53;9.43;;;22.90;1.00;;;;;;5061423;28;20483;-84
2021/06/25 08:27:11;;;;;;;10.83;9.83;;;22.80;1.00;;;;;;5069462;28;20473;-84
2021/06/25 08:29:38;;;;;;;12.50;10.90;;;22.80;1.00;;;;;;5070208;28;20443;-82
2021/06/25 08:32:06;;;;;;;9.70;8.73;;;22.70;1.00;;;;;;5069880;28;20477;-84
2021/06/25 08:34:32;;;;;;;11.57;10.47;;;22.70;1.00;;;;;;5063464;28;21283;-83
2021/06/25 08:36:59;;;;;;;10.53;9.50;;;22.80;1.00;;;;;;5060389;28;20434;-81
2021/06/25 08:39:26;;;;;;;11.23;10.10;;;23.00;1.00;;;;;;5064394;28;21556;-83
2021/06/25 08:41:53;;;;;;;9.30;8.50;;;23.20;1.00;;;;;;5061201;28;20454;-83
2021/06/25 08:44:21;;;;;;;10.43;9.40;;;23.40;1.00;;;;;;5072362;28;20426;-82
2021/06/25 08:46:49;;;;;;;14.30;12.90;;;23.60;1.00;;;;;;5063318;28;20447;-82
2021/06/25 08:49:19;;;;;;;9.63;8.50;;;23.80;1.00;;;;;;5071214;28;20443;-81
2021/06/25 08:51:48;;;;;;;10.57;8.03;;;23.80;1.00;;;;;;5058730;28;20459;-79
2021/06/25 08:54:15;;;;;;;10.10;8.80;;;23.90;1.00;;;;;;5063501;28;20993;-78
2021/06/25 08:56:42;;;;;;;9.73;8.80;;;24.00;1.00;;;;;;5073167;28;20459;-78
2021/06/25 08:59:09;;;;;;;10.37;9.47;;;24.10;1.00;;;;;;5077415;28;21278;-81
2021/06/25 09:01:37;;;;;;;9.90;9.00;;;24.10;1.00;;;;;;5073812;28;21294;-80
2021/06/25 09:04:08;;;;;;;9.30;8.50;;;24.20;1.00;;;;;;5076391;28;20500;-81
2021/06/25 09:06:34;;;;;;;9.20;8.40;;;24.30;1.00;;;;;;5078946;28;20452;-80
2021/06/25 09:09:13;;;;;;;11.63;10.53;;;24.50;1.00;;;;;;5068712;28;20429;-82
2021/06/25 09:11:43;;;;;;;10.60;9.70;;;24.80;1.00;;;;;;5066648;28;20408;-81
2021/06/25 09:14:10;;;;;;;10.37;9.50;;;24.90;1.00;;;;;;5068760;28;20421;-80
2021/06/25 09:16:39;;;;;;;11.13;10.17;;;24.90;1.00;;;;;;5061559;28;20438;-83
2021/06/25 09:19:07;;;;;;;9.83;9.03;;;25.00;1.00;;;;;;5060448;28;20480;-82
2021/06/25 09:21:37;;;;;;;12.50;11.40;;;25.30;1.00;;;;;;5059772;28;20415;-82
2021/06/25 09:24:21;;;;;;;10.33;9.53;;;25.50;1.00;;;;;;5060689;28;20535;-81
2021/06/25 09:26:49;;;;;;;9.57;8.73;;;25.80;1.00;;;;;;5060441;28;20440;-82
2021/06/25 09:29:18;;;;;;;11.30;8.50;;;26.00;1.00;;;;;;5057548;28;21381;-81
2021/06/25 09:31:57;;;;;;;8.17;7.40;;;26.30;1.00;;;;;;5058809;28;20533;-80
2021/06/25 09:34:35;;;;;;;10.70;9.63;;;26.30;1.00;;;;;;5054661;28;21291;-84
2021/06/25 09:37:02;;;;;;;9.20;8.33;;;26.30;1.00;;;;;;5060367;28;20463;-83
2021/06/25 09:39:29;;;;;;;10.00;9.20;;;26.30;1.00;;;;;;5057416;28;20465;-81
2021/06/25 09:41:56;;;;;;;9.70;8.77;;;26.30;1.00;;;;;;5074177;28;20630;-81
2021/06/25 09:44:24;;;;;;;13.57;12.23;;;26.40;1.00;;;;;;5077140;28;20481;-82
2021/06/25 09:46:54;;;;;;;9.50;8.70;;;26.60;1.00;;;;;;5073839;28;20490;-82
2021/06/25 09:49:25;;;;;;;9.97;9.07;;;26.90;1.00;;;;;;5067273;28;20439;-82
2021/06/25 09:51:57;;;;;;;9.53;8.70;;;26.90;1.00;;;;;;5077398;28;20439;-83
2021/06/25 09:54:25;;;;;;;8.70;8.10;;;26.90;1.00;;;;;;5090158;28;20416;-81
2021/06/25 09:56:54;;;;;;;9.10;8.20;;;27.60;1.00;;;;;;5075273;28;20555;-84
2021/06/25 09:59:42;;;;;;;8.00;7.20;;;28.20;1.00;;;;;;5070138;28;20485;-84
2021/06/25 10:02:29;;;;;;;6.90;6.20;;;29.30;1.00;;;;;;5083161;28;20441;-83
2021/06/25 10:04:57;;;;;;;8.50;7.67;;;31.00;1.00;;;;;;5067696;28;20443;-84
2021/06/25 10:07:26;;;;;;;10.73;8.20;;;31.10;1.00;;;;;;5077744;28;20440;-83
2021/06/25 10:09:55;;;;;;;9.27;8.43;;;30.00;1.00;;;;;;5075654;28;20412;-83
2021/06/25 10:12:23;;;;;;;10.60;9.20;;;29.00;1.00;;;;;;5070350;28;20449;-84
2021/06/25 10:14:52;;;;;;;11.83;10.73;;;27.90;1.00;;;;;;5072742;28;20887;-84
2021/06/25 10:17:19;;;;;;;10.80;9.13;;;27.10;1.00;;;;;;5070636;28;20446;-83
2021/06/25 10:19:49;;;;;;;9.13;8.43;;;26.50;1.00;;;;;;5065772;28;20511;-83
2021/06/25 10:22:18;;;;;;;10.03;9.23;;;26.10;1.00;;;;;;5072805;28;20531;-82
2021/06/25 10:24:50;;;;;;;9.97;8.97;;;26.00;1.00;;;;;;5073668;28;20544;-84
2021/06/25 10:27:19;;;;;;;10.57;9.57;;;26.10;1.00;;;;;;5068305;28;20443;-83
2021/06/25 10:29:46;;;;;;;9.37;8.47;;;26.30;1.00;;;;;;5078230;28;20464;-84
2021/06/25 10:32:16;;;;;;;9.80;9.00;;;26.80;1.00;;;;;;5071576;28;20482;-83
2021/06/25 10:34:44;;;;;;;9.40;8.50;;;27.30;1.00;;;;;;5071921;28;20430;-83
2021/06/25 10:37:16;;;;;;;9.23;8.33;;;27.60;1.00;;;;;;5073066;28;20424;-83
2021/06/25 10:39:43;;;;;;;9.00;8.13;;;27.40;1.00;;;;;;5078101;28;20487;-84
2021/06/25 10:42:11;;;;;;;8.20;7.43;;;27.10;1.00;;;;;;5068763;28;20446;-83
2021/06/25 10:44:43;;;;;;;9.43;8.53;;;26.80;1.00;;;;;;5077156;28;20532;-82
2021/06/25 10:47:19;;;;;;;9.10;8.30;;;26.60;1.00;;;;;;5074963;28;20465;-83
2021/06/25 10:50:19;;;;;;;9.03;8.10;;;26.40;1.00;;;;;;5074261;28;20462;-83
2021/06/25 10:53:10;;;;;;;9.60;8.70;;;26.40;1.00;;;;;;5069513;28;20474;-83
2021/06/25 10:55:44;;;;;;;21.00;19.10;;;26.10;1.00;;;;;;5073896;28;20421;-83
2021/06/25 10:58:12;;;;;;;11.67;10.57;;;26.00;1.00;;;;;;5074136;28;20540;-82
2021/06/25 11:00:56;;;;;;;9.80;8.90;;;25.80;1.00;;;;;;5075764;28;20452;-84
2021/06/25 11:03:45;;;;;;;12.80;9.67;;;25.50;1.00;;;;;;5078506;28;20952;-84
2021/06/25 11:06:52;;;;;;;9.63;8.87;;;25.30;1.00;;;;;;5061629;28;20438;-83
2021/06/25 11:09:25;;;;;;;10.30;9.50;;;25.10;1.00;;;;;;5022151;28;20760;-83
2021/06/25 11:12:14;;;;;;;10.10;9.33;;;25.20;1.00;;;;;;5058721;28;20477;-80
2021/06/25 11:14:41;;;;;;;10.80;8.53;;;25.30;1.00;;;;;;5063581;28;20506;-82
2021/06/25 11:17:08;;;;;;;9.43;8.63;;;25.50;1.00;;;;;;5066801;28;20459;-84
2021/06/25 11:19:36;;;;;;;8.23;7.50;;;26.10;1.00;;;;;;5072425;28;20456;-83
2021/06/25 11:22:04;;;;;;;9.30;8.40;;;27.40;1.00;;;;;;5080877;28;20418;-84
2021/06/25 11:24:53;;;;;;;9.10;8.30;;;28.10;1.00;;;;;;5068950;28;20430;-83
2021/06/25 11:27:20;;;;;;;10.10;8.90;;;28.00;1.00;;;;;;5078033;28;20510;-83
2021/06/25 11:29:49;;;;;;;8.47;7.77;;;27.90;1.00;;;;;;5070640;28;20453;-83
2021/06/25 11:32:28;;;;;;;10.47;9.57;;;27.80;1.00;;;;;;5076859;28;20475;-86
2021/06/25 11:34:56;;;;;;;11.07;10.03;;;27.80;1.00;;;;;;5071628;28;20469;-83
2021/06/25 11:37:38;;;;;;;8.40;7.70;;;27.50;1.00;;;;;;5076010;28;20453;-84
2021/06/25 11:40:07;;;;;;;7.27;6.57;;;27.20;1.00;;;;;;5079703;28;20428;-83
2021/06/25 11:42:34;;;;;;;8.10;7.30;;;26.80;1.00;;;;;;5075374;28;20485;-82
2021/06/25 11:45:01;;;;;;;6.07;5.57;;;26.50;1.00;;;;;;5083019;28;20437;-85
2021/06/25 11:47:29;;;;;;;7.30;6.73;;;26.30;1.00;;;;;;5072963;28;20448;-83
2021/06/25 11:50:01;;;;;;;5.77;5.37;;;26.20;1.00;;;;;;5069315;28;20457;-85
2021/06/25 11:52:29;;;;;;;4.90;4.37;;;26.20;1.00;;;;;;5071806;28;20467;-83
2021/06/25 11:54:58;;;;;;;6.90;6.30;;;26.20;1.00;;;;;;5066805;28;20491;-83
2021/06/25 11:57:28;;;;;;;6.17;5.57;;;26.40;1.00;;;;;;5070695;28;20477;-84
2021/06/25 12:00:00;;;;;;;8.87;7.97;;;26.80;1.00;;;;;;5072089;28;21276;-82
2021/06/25 12:02:27;;;;;;;6.73;6.03;;;27.40;1.00;;;;;;5073772;28;20473;-82
2021/06/25 12:04:54;;;;;;;6.13;5.53;;;27.90;1.00;;;;;;5069103;28;20437;-83
2021/06/25 12:07:21;;;;;;;6.70;6.20;;;28.10;1.00;;;;;;5079023;28;20477;-83
2021/06/25 12:09:50;;;;;;;6.90;6.10;;;28.10;1.00;;;;;;5078212;28;20809;-83
2021/06/25 12:12:23;;;;;;;5.87;5.40;;;28.30;1.00;;;;;;5074784;28;20493;-83
2021/06/25 12:14:54;;;;;;;6.97;6.33;;;28.70;1.00;;;;;;5089794;28;23294;-84
2021/06/25 12:17:21;;;;;;;10.57;7.80;;;29.20;1.00;;;;;;5075907;28;20484;-84
2021/06/25 12:19:56;;;;;;;8.40;7.50;;;30.70;1.00;;;;;;5076624;28;20548;-84
2021/06/25 12:22:23;;;;;;;8.37;5.90;;;31.10;1.00;;;;;;5077807;28;20446;-84
2021/06/25 12:24:51;;;;;;;6.87;6.30;;;31.20;1.00;;;;;;5070303;28;20471;-84
2021/06/25 12:27:18;;;;;;;6.40;5.80;;;31.20;1.00;;;;;;5074386;28;20646;-82
2021/06/25 12:29:46;;;;;;;9.83;5.80;;;31.20;1.00;;;;;;5069147;28;20525;-84
2021/06/25 12:32:21;;;;;;;5.90;5.50;;;31.00;1.00;;;;;;5075276;28;20445;-83
2021/06/25 12:34:48;;;;;;;5.23;4.83;;;30.90;1.00;;;;;;5081442;28;20487;-83
2021/06/25 12:37:15;;;;;;;5.50;4.73;;;32.00;1.00;;;;;;5074913;28;20432;-82
2021/06/25 12:39:45;;;;;;;5.53;4.80;;;33.90;1.00;;;;;;5076353;28;20521;-82
2021/06/25 12:42:19;;;;;;;5.17;4.63;;;35.80;1.00;;;;;;5071582;28;20439;-83
2021/06/25 12:44:47;;;;;;;4.77;4.37;;;36.30;1.00;;;;;;5077991;28;20479;-83
2021/06/25 12:47:13;;;;;;;5.63;5.00;;;34.90;1.00;;;;;;5075621;28;20496;-84
2021/06/25 12:49:43;;;;;;;5.93;4.20;;;33.80;1.00;;;;;;5077605;28;21800;-83
2021/06/25 12:52:24;;;;;;;5.30;4.80;;;33.30;1.00;;;;;;5075011;28;21355;-82
2021/06/25 12:54:51;;;;;;;13.93;6.00;;;33.40;1.00;;;;;;5093993;28;20477;-85
2021/06/25 12:57:19;;;;;;;4.70;4.33;;;33.40;1.00;;;;;;5081412;28;20435;-83
2021/06/25 12:59:48;;;;;;;4.30;3.67;;;33.00;1.00;;;;;;5077568;28;22365;-83
2021/06/25 13:02:15;;;;;;;5.47;4.97;;;33.70;1.00;;;;;;5086828;28;20478;-84